Time;durP1;ratioP1;P1;durP2;ratioP2;P2;SDS_P1;SDS_P2;PMS_P1;PMS_P2;Temp;Humidity;BMP_temperature;BMP_pressure;BME280_temperature;BME280_humidity;BME280_pressure;Samples;Min_cycle;Max_cycle;Signal;HPM_P1;HPM_P2
2022/11/03 00:09:53;;;;;;;9.05;4.03;;;;;;;;;;21001040;28;20409;-70
2022/11/03 00:19:54;;;;;;;6.53;3.50;;;;;;;;;;21000285;28;20427;-70
2022/11/03 00:29:56;;;;;;;7.45;3.42;;;;;;;;;;20999715;28;20110;-71
2022/11/03 00:39:58;;;;;;;4.80;2.97;;;;;;;;;;20997809;28;20045;-70
2022/11/03 00:50:00;;;;;;;4.85;2.90;;;;;;;;;;20996832;28;20114;-70
2022/11/03 01:00:03;;;;;;;8.43;3.95;;;;;;;;;;20996535;28;20135;-70
2022/11/03 01:10:06;;;;;;;14.25;3.33;;;;;;;;;;20996618;28;20060;-71
2022/11/03 01:20:08;;;;;;;7.07;3.05;;;;;;;;;;20996362;28;20056;-71
2022/11/03 01:30:11;;;;;;;9.52;3.85;;;;;;;;;;20995176;28;20049;-73
2022/11/03 01:40:13;;;;;;;11.57;3.75;;;;;;;;;;20995957;28;20405;-69
2022/11/03 01:50:17;;;;;;;8.43;3.53;;;;;;;;;;20994426;28;20060;-69
2022/11/03 02:00:19;;;;;;;4.53;2.08;;;;;;;;;;20999770;28;20056;-70
2022/11/03 02:10:22;;;;;;;4.20;1.70;;;;;;;;;;21011828;28;20477;-71
2022/11/03 02:20:28;;;;;;;6.93;2.20;;;;;;;;;;21008802;28;20052;-70
2022/11/03 02:30:35;;;;;;;3.55;1.80;;;;;;;;;;21008185;28;20087;-70
2022/11/03 02:40:41;;;;;;;4.57;2.00;;;;;;;;;;21008312;28;20102;-70
2022/11/03 02:50:46;;;;;;;3.35;1.92;;;;;;;;;;21005996;28;20074;-70
2022/11/03 03:01:13;;;;;;;4.55;1.77;;;;;;;;;;21006149;28;20489;-70
2022/11/03 03:11:35;;;;;;;3.58;1.92;;;;;;;;;;21004984;28;20091;-71
2022/11/03 03:21:42;;;;;;;5.95;2.42;;;;;;;;;;21004599;28;20053;-70
2022/11/03 03:31:50;;;;;;;4.93;2.27;;;;;;;;;;21003432;28;20041;-70
2022/11/03 03:41:55;;;;;;;5.47;2.08;;;;;;;;;;21002825;28;20497;-71
2022/11/03 03:51:58;;;;;;;6.15;2.47;;;;;;;;;;21002525;28;20504;-70
2022/11/03 04:02:01;;;;;;;3.00;2.08;;;;;;;;;;21000695;28;20051;-70
2022/11/03 04:22:30;;;;;;;9.38;3.67;;;;;;;;;;20999036;28;20056;-70
2022/11/03 04:32:32;;;;;;;12.25;3.92;;;;;;;;;;20999178;28;20045;-70
2022/11/03 04:42:34;;;;;;;6.35;3.45;;;;;;;;;;20997703;28;20439;-71
2022/11/03 04:52:36;;;;;;;8.60;3.67;;;;;;;;;;20997105;28;20048;-68
2022/11/03 05:02:37;;;;;;;11.18;4.07;;;;;;;;;;20996798;28;20488;-70
2022/11/03 05:12:40;;;;;;;12.60;3.80;;;;;;;;;;20997190;28;20045;-69
2022/11/03 05:22:46;;;;;;;9.02;4.20;;;;;;;;;;20996684;28;20049;-70
2022/11/03 05:32:48;;;;;;;9.57;4.85;;;;;;;;;;20997407;28;20072;-71
2022/11/03 05:43:01;;;;;;;12.27;4.68;;;;;;;;;;21011592;28;20060;-71
2022/11/03 05:53:08;;;;;;;9.73;4.75;;;;;;;;;;21011203;28;20436;-72
2022/11/03 06:03:16;;;;;;;15.10;4.43;;;;;;;;;;21010760;28;20503;-69
2022/11/03 06:13:24;;;;;;;10.67;4.27;;;;;;;;;;21010314;28;20047;-71
2022/11/03 06:23:28;;;;;;;5.75;2.60;;;;;;;;;;21009162;28;20110;-70
2022/11/03 06:33:34;;;;;;;2.95;1.70;;;;;;;;;;21009212;28;20191;-70
2022/11/03 06:43:44;;;;;;;5.95;2.20;;;;;;;;;;21006757;28;20056;-71
2022/11/03 06:53:46;;;;;;;4.13;2.28;;;;;;;;;;21006425;28;20075;-71
2022/11/03 07:03:50;;;;;;;5.90;2.40;;;;;;;;;;21006964;28;20524;-71
2022/11/03 07:13:55;;;;;;;5.00;2.63;;;;;;;;;;21005409;28;20047;-72
2022/11/03 07:23:59;;;;;;;7.53;2.85;;;;;;;;;;21002782;28;20090;-71
2022/11/03 07:34:01;;;;;;;7.78;3.60;;;;;;;;;;21003053;28;20079;-70
2022/11/03 07:44:05;;;;;;;5.47;3.38;;;;;;;;;;21003157;28;20052;-71
2022/11/03 07:54:09;;;;;;;5.00;2.35;;;;;;;;;;21002651;28;20552;-72
2022/11/03 08:04:16;;;;;;;5.00;2.58;;;;;;;;;;21000551;28;20087;-71
2022/11/03 08:14:18;;;;;;;5.82;3.00;;;;;;;;;;21001334;28;20148;-71
2022/11/03 08:24:21;;;;;;;5.20;2.88;;;;;;;;;;21000152;28;20085;-70
2022/11/03 08:34:23;;;;;;;6.30;3.33;;;;;;;;;;20998707;28;20404;-69
2022/11/03 08:44:26;;;;;;;3.55;2.45;;;;;;;;;;20997572;28;20064;-71
2022/11/03 08:54:28;;;;;;;5.00;2.10;;;;;;;;;;20996950;28;20049;-70
2022/11/03 09:04:30;;;;;;;3.85;1.60;;;;;;;;;;20996900;28;20056;-66
2022/11/03 09:14:32;;;;;;;3.88;1.60;;;;;;;;;;20995787;28;20045;-70
2022/11/03 09:24:34;;;;;;;7.63;2.10;;;;;;;;;;20995407;28;20056;-71
2022/11/03 09:34:37;;;;;;;4.65;2.40;;;;;;;;;;20994795;28;20097;-70
2022/11/03 09:44:42;;;;;;;4.85;2.08;;;;;;;;;;20978662;28;20473;-69
2022/11/03 09:54:44;;;;;;;4.82;2.03;;;;;;;;;;20999763;28;20143;-74
2022/11/03 10:04:45;;;;;;;3.20;1.58;;;;;;;;;;20995360;28;20095;-67
2022/11/03 10:14:47;;;;;;;3.55;1.80;;;;;;;;;;20993664;28;20048;-68
2022/11/03 10:25:09;;;;;;;5.28;1.95;;;;;;;;;;21003080;28;20068;-70
2022/11/03 10:35:31;;;;;;;5.45;1.80;;;;;;;;;;21007368;28;20045;-67
2022/11/03 10:45:35;;;;;;;2.28;1.38;;;;;;;;;;21006490;28;20133;-67
2022/11/03 10:55:40;;;;;;;5.00;1.70;;;;;;;;;;21007154;28;20118;-70
2022/11/03 11:05:46;;;;;;;4.28;1.30;;;;;;;;;;21006822;28;20423;-67
2022/11/03 11:15:53;;;;;;;1.63;0.93;;;;;;;;;;21005117;28;20040;-70
2022/11/03 11:26:10;;;;;;;2.55;1.10;;;;;;;;;;21004541;28;20048;-69
2022/11/03 11:36:20;;;;;;;4.10;1.83;;;;;;;;;;21002824;28;20056;-70
2022/11/03 11:46:22;;;;;;;2.38;1.25;;;;;;;;;;21002184;28;20141;-70
2022/11/03 11:56:24;;;;;;;2.42;1.10;;;;;;;;;;21003924;28;20481;-68
2022/11/03 12:06:39;;;;;;;2.55;0.82;;;;;;;;;;21000654;28;20146;-71
2022/11/03 12:16:41;;;;;;;1.88;0.90;;;;;;;;;;21001186;28;20488;-70
2022/11/03 12:26:43;;;;;;;2.85;0.90;;;;;;;;;;21000090;28;20481;-69
2022/11/03 12:36:45;;;;;;;5.05;0.93;;;;;;;;;;20998960;28;20404;-68
2022/11/03 12:46:47;;;;;;;1.90;0.90;;;;;;;;;;20997998;28;20452;-69
2022/11/03 12:56:51;;;;;;;1.38;0.60;;;;;;;;;;20998465;28;20080;-71
2022/11/03 13:06:53;;;;;;;1.00;0.70;;;;;;;;;;20996426;28;20049;-70
2022/11/03 13:16:55;;;;;;;1.10;0.68;;;;;;;;;;20996009;28;20097;-70
2022/11/03 13:26:57;;;;;;;0.95;0.47;;;;;;;;;;20995768;28;20052;-68
2022/11/03 13:37:00;;;;;;;2.90;0.75;;;;;;;;;;20996198;28;20052;-70
2022/11/03 13:47:03;;;;;;;1.23;0.52;;;;;;;;;;20995432;28;20397;-70
2022/11/03 13:57:06;;;;;;;1.52;0.40;;;;;;;;;;21001421;28;20468;-70
2022/11/03 14:07:08;;;;;;;2.70;0.63;;;;;;;;;;21010980;28;20059;-67
2022/11/03 14:17:11;;;;;;;1.45;0.68;;;;;;;;;;21011207;28;20044;-69
2022/11/03 14:27:14;;;;;;;5.43;1.02;;;;;;;;;;21010623;28;20183;-69
2022/11/03 14:37:16;;;;;;;2.55;0.95;;;;;;;;;;21008866;28;20052;-68
2022/11/03 14:47:22;;;;;;;7.03;3.35;;;;;;;;;;21006863;28;20462;-70
2022/11/03 14:57:24;;;;;;;1.48;0.63;;;;;;;;;;21006838;28;20091;-69
2022/11/03 15:07:26;;;;;;;1.60;0.80;;;;;;;;;;21005679;28;20159;-70
2022/11/03 15:17:27;;;;;;;2.22;0.68;;;;;;;;;;21005963;28;20053;-71
2022/11/03 15:27:29;;;;;;;2.70;0.90;;;;;;;;;;21004637;28;20059;-69
2022/11/03 15:37:31;;;;;;;1.98;0.65;;;;;;;;;;21004518;28;20075;-69
2022/11/03 15:47:33;;;;;;;1.63;0.63;;;;;;;;;;21002356;28;20063;-70
2022/11/03 15:57:35;;;;;;;3.97;0.80;;;;;;;;;;21005479;28;20056;-71
2022/11/03 16:07:37;;;;;;;0.65;0.50;;;;;;;;;;21001719;28;20374;-69
2022/11/03 16:17:39;;;;;;;1.05;0.60;;;;;;;;;;20999583;28;20060;-65
2022/11/03 16:27:41;;;;;;;1.02;0.50;;;;;;;;;;20998933;28;20048;-67
2022/11/03 16:37:43;;;;;;;1.83;0.70;;;;;;;;;;20999239;28;20045;-70
2022/11/03 16:47:48;;;;;;;0.73;0.50;;;;;;;;;;20996038;28;20181;-70
2022/11/03 16:57:50;;;;;;;2.13;0.70;;;;;;;;;;20994944;28;20166;-69
2022/11/03 17:07:52;;;;;;;1.60;0.50;;;;;;;;;;20993945;28;20052;-69
2022/11/03 17:17:54;;;;;;;1.20;0.70;;;;;;;;;;20993357;28;20098;-68
2022/11/03 17:27:58;;;;;;;8.13;3.08;;;;;;;;;;20991729;28;20060;-68
2022/11/03 17:38:01;;;;;;;2.25;1.02;;;;;;;;;;20990854;28;20055;-69
2022/11/03 17:48:04;;;;;;;1.42;0.75;;;;;;;;;;20952569;28;1180603;-70
2022/11/03 17:58:05;;;;;;;1.92;1.10;;;;;;;;;;20994861;28;20076;-70
2022/11/03 18:08:09;;;;;;;2.47;1.60;;;;;;;;;;20993824;28;20049;-71
2022/11/03 18:18:13;;;;;;;2.92;1.63;;;;;;;;;;20993645;28;20052;-67
2022/11/03 18:28:16;;;;;;;3.45;2.00;;;;;;;;;;20994181;28;20080;-70
2022/11/03 18:38:18;;;;;;;5.32;0.90;;;;;;;;;;20996528;28;20059;-66
2022/11/03 18:48:20;;;;;;;2.38;1.55;;;;;;;;;;21030906;28;20071;-76
2022/11/03 18:58:23;;;;;;;3.60;1.15;;;;;;;;;;21098117;28;20048;-73
2022/11/03 19:08:27;;;;;;;3.90;1.67;;;;;;;;;;21096189;28;20494;-74
2022/11/03 19:18:32;;;;;;;2.88;1.60;;;;;;;;;;21090587;28;20079;-71
2022/11/03 19:28:34;;;;;;;3.78;1.40;;;;;;;;;;21089376;28;20519;-75
2022/11/03 19:38:37;;;;;;;4.72;0.98;;;;;;;;;;21088890;28;20048;-75
2022/11/03 19:48:38;;;;;;;2.03;0.80;;;;;;;;;;21092274;28;20060;-72
2022/11/03 19:58:41;;;;;;;3.70;1.27;;;;;;;;;;21089174;28;20135;-73
2022/11/03 20:08:44;;;;;;;2.78;1.23;;;;;;;;;;21084220;28;20077;-65
2022/11/03 20:18:47;;;;;;;2.25;1.00;;;;;;;;;;21085177;28;20223;-67
2022/11/03 20:28:49;;;;;;;3.42;1.20;;;;;;;;;;21083260;28;20083;-71
2022/11/03 20:38:58;;;;;;;1.23;0.60;;;;;;;;;;21083549;28;20132;-71
2022/11/03 20:49:00;;;;;;;1.58;0.60;;;;;;;;;;21081650;28;20078;-67
2022/11/03 20:59:02;;;;;;;1.40;0.75;;;;;;;;;;21080948;28;20074;-67
2022/11/03 21:09:04;;;;;;;1.40;0.70;;;;;;;;;;21081042;28;20419;-72
2022/11/03 21:29:44;;;;;;;1.35;0.50;;;;;;;;;;21080406;28;20549;-66
2022/11/03 21:39:46;;;;;;;2.58;1.48;;;;;;;;;;21079106;28;20135;-67
2022/11/03 21:49:48;;;;;;;1.33;0.60;;;;;;;;;;21076942;28;20051;-67
2022/11/03 21:59:51;;;;;;;0.98;0.40;;;;;;;;;;21078304;28;20503;-67
2022/11/03 22:09:53;;;;;;;1.17;0.60;;;;;;;;;;21078833;28;20045;-69
2022/11/03 22:51:05;;;;;;;1.48;0.77;;;;;;;;;;21090904;28;20488;-68
2022/11/03 23:01:11;;;;;;;1.20;0.80;;;;;;;;;;21071878;28;20135;-66
2022/11/03 23:11:16;;;;;;;1.08;0.55;;;;;;;;;;21089937;28;20080;-66
2022/11/03 23:21:18;;;;;;;1.35;0.70;;;;;;;;;;21088676;28;20412;-67
2022/11/03 23:31:20;;;;;;;1.60;0.73;;;;;;;;;;21088049;28;20496;-72
2022/11/03 23:41:23;;;;;;;1.88;0.80;;;;;;;;;;21088024;28;20083;-68
2022/11/03 23:51:26;;;;;;;2.00;1.08;;;;;;;;;;21068544;28;20048;-67
